Time;durP1;ratioP1;P1;durP2;ratioP2;P2;SDS_P1;SDS_P2;PMS_P1;PMS_P2;Temp;Humidity;BMP_temperature;BMP_pressure;BME280_temperature;BME280_humidity;BME280_pressure;Samples;Min_cycle;Max_cycle;Signal;HPM_P1;HPM_P2
2023/04/13 00:02:09;;;;;;;1.50;0.68;;;;;;;;;;5011169;28;20029;-86
2023/04/13 00:04:35;;;;;;;0.73;0.73;;;;;;;;;;5021916;28;20116;-86
2023/04/13 00:07:02;;;;;;;1.25;0.70;;;;;;;;;;5024699;28;20388;-86
2023/04/13 00:09:31;;;;;;;0.60;0.45;;;;;;;;;;5018707;28;20026;-86
2023/04/13 00:11:57;;;;;;;1.15;0.63;;;;;;;;;;5023207;28;20424;-86
2023/04/13 00:14:32;;;;;;;0.55;0.55;;;;;;;;;;5015421;28;20025;-86
2023/04/13 00:16:58;;;;;;;1.13;0.63;;;;;;;;;;5024771;28;20203;-86
2023/04/13 00:19:25;;;;;;;0.50;0.50;;;;;;;;;;5018214;28;20029;-87
2023/04/13 00:21:52;;;;;;;0.73;0.57;;;;;;;;;;5021379;28;20484;-86
2023/04/13 00:24:18;;;;;;;2.67;1.08;;;;;;;;;;5016606;28;20115;-87
2023/04/13 00:26:45;;;;;;;0.80;0.77;;;;;;;;;;5013202;28;20109;-86
2023/04/13 00:29:11;;;;;;;3.33;0.95;;;;;;;;;;5026314;28;20035;-86
2023/04/13 00:31:38;;;;;;;1.77;0.60;;;;;;;;;;5023182;28;20497;-86
2023/04/13 00:34:04;;;;;;;0.57;0.43;;;;;;;;;;5019580;28;20059;-86
2023/04/13 00:36:30;;;;;;;1.50;0.60;;;;;;;;;;5018993;28;20030;-86
2023/04/13 00:38:57;;;;;;;1.85;0.75;;;;;;;;;;5018227;28;20138;-87
2023/04/13 00:41:23;;;;;;;0.55;0.45;;;;;;;;;;5026667;28;20136;-86
2023/04/13 00:43:51;;;;;;;1.00;0.57;;;;;;;;;;5020355;28;20053;-86
2023/04/13 00:46:18;;;;;;;0.50;0.50;;;;;;;;;;5015621;28;20027;-86
2023/04/13 00:48:44;;;;;;;0.77;0.77;;;;;;;;;;5010961;28;20401;-86
2023/04/13 00:51:12;;;;;;;1.65;0.90;;;;;;;;;;5014216;28;20500;-85
2023/04/13 00:53:39;;;;;;;0.77;0.68;;;;;;;;;;5029193;28;20037;-86
2023/04/13 00:56:05;;;;;;;0.80;0.70;;;;;;;;;;5026885;28;20033;-86
2023/04/13 00:58:31;;;;;;;0.63;0.60;;;;;;;;;;5018096;28;20026;-86
2023/04/13 01:00:57;;;;;;;2.42;0.77;;;;;;;;;;5018452;28;20040;-86
2023/04/13 01:03:24;;;;;;;1.25;0.90;;;;;;;;;;5025805;28;20029;-87
2023/04/13 01:06:04;;;;;;;2.25;0.80;;;;;;;;;;5028031;28;20030;-86
2023/04/13 01:08:39;;;;;;;1.58;0.88;;;;;;;;;;5016730;28;20029;-87
2023/04/13 01:11:10;;;;;;;0.73;0.52;;;;;;;;;;5014543;28;20034;-87
2023/04/13 01:13:39;;;;;;;0.65;0.65;;;;;;;;;;5016214;28;20041;-87
2023/04/13 01:16:09;;;;;;;0.65;0.60;;;;;;;;;;5018279;28;20049;-87
2023/04/13 01:18:40;;;;;;;1.88;0.88;;;;;;;;;;5024145;28;20392;-88
2023/04/13 01:21:08;;;;;;;0.82;0.73;;;;;;;;;;5026610;28;20034;-86
2023/04/13 01:23:50;;;;;;;0.65;0.65;;;;;;;;;;5025072;28;20709;-86
2023/04/13 01:26:16;;;;;;;0.98;0.70;;;;;;;;;;5018248;28;20029;-86
2023/04/13 01:28:42;;;;;;;0.80;0.77;;;;;;;;;;5015726;28;20030;-86
2023/04/13 01:31:10;;;;;;;1.05;0.60;;;;;;;;;;5013186;28;20117;-87
2023/04/13 01:33:37;;;;;;;0.88;0.73;;;;;;;;;;5015249;28;20029;-86
2023/04/13 01:36:03;;;;;;;1.08;0.82;;;;;;;;;;5023367;28;20037;-86
2023/04/13 01:38:30;;;;;;;0.75;0.75;;;;;;;;;;5021308;28;20036;-87
2023/04/13 01:40:56;;;;;;;1.00;0.60;;;;;;;;;;5021013;28;20063;-86
2023/04/13 01:43:23;;;;;;;0.93;0.68;;;;;;;;;;5024835;28;20416;-87
2023/04/13 01:45:59;;;;;;;0.98;0.60;;;;;;;;;;5012233;28;20042;-86
2023/04/13 01:48:32;;;;;;;0.85;0.52;;;;;;;;;;5024443;28;20026;-85
2023/04/13 01:51:00;;;;;;;0.63;0.63;;;;;;;;;;5022744;28;20037;-86
2023/04/13 01:53:31;;;;;;;1.02;0.68;;;;;;;;;;5010958;28;20026;-86
2023/04/13 01:55:59;;;;;;;;;;;;;;;;;;5020132;28;20488;-86
2023/04/13 01:58:26;;;;;;;1.90;0.57;;;;;;;;;;5015111;28;20406;-86
2023/04/13 02:00:53;;;;;;;0.98;0.80;;;;;;;;;;5018566;28;20029;-86
2023/04/13 02:03:21;;;;;;;1.33;0.70;;;;;;;;;;5021099;28;20068;-86
2023/04/13 02:05:49;;;;;;;1.15;0.80;;;;;;;;;;5019758;28;20048;-86
2023/04/13 02:08:17;;;;;;;0.70;0.70;;;;;;;;;;5017794;28;20101;-85
2023/04/13 02:10:43;;;;;;;1.27;0.60;;;;;;;;;;5027272;28;20539;-86
2023/04/13 02:13:09;;;;;;;1.08;0.63;;;;;;;;;;5023183;28;20281;-86
2023/04/13 02:15:36;;;;;;;2.80;0.57;;;;;;;;;;5016669;28;20038;-86
2023/04/13 02:18:02;;;;;;;0.55;0.50;;;;;;;;;;5019473;28;20044;-86
2023/04/13 02:20:29;;;;;;;0.95;0.80;;;;;;;;;;5017563;28;20026;-86
2023/04/13 02:22:55;;;;;;;0.93;0.77;;;;;;;;;;5021366;28;20382;-86
2023/04/13 02:25:21;;;;;;;1.30;0.70;;;;;;;;;;5025048;28;20029;-86
2023/04/13 02:27:47;;;;;;;0.98;0.70;;;;;;;;;;5016181;28;20036;-85
2023/04/13 02:30:13;;;;;;;1.17;0.80;;;;;;;;;;5021036;28;20047;-86
2023/04/13 02:32:40;;;;;;;1.52;0.73;;;;;;;;;;5026375;28;20374;-85
2023/04/13 02:35:10;;;;;;;0.88;0.70;;;;;;;;;;5019851;28;20026;-86
2023/04/13 02:37:38;;;;;;;0.60;0.60;;;;;;;;;;5023081;28;20064;-86
2023/04/13 02:40:07;;;;;;;1.52;0.70;;;;;;;;;;5024862;28;20029;-86
2023/04/13 02:42:33;;;;;;;0.50;0.50;;;;;;;;;;5023303;28;20084;-85
2023/04/13 02:44:59;;;;;;;0.68;0.68;;;;;;;;;;5020312;28;20053;-85
2023/04/13 02:47:25;;;;;;;0.50;0.50;;;;;;;;;;5019863;28;20025;-84
2023/04/13 02:49:51;;;;;;;0.50;0.50;;;;;;;;;;5024115;28;20034;-86
2023/04/13 02:52:17;;;;;;;1.10;1.00;;;;;;;;;;5024789;28;20092;-85
2023/04/13 02:54:43;;;;;;;0.77;0.60;;;;;;;;;;5020080;28;20684;-85
2023/04/13 02:57:12;;;;;;;0.50;0.50;;;;;;;;;;5020435;28;20029;-85
2023/04/13 02:59:39;;;;;;;0.82;0.60;;;;;;;;;;5016071;28;20067;-85
2023/04/13 03:02:11;;;;;;;0.95;0.60;;;;;;;;;;5026108;28;20024;-86
2023/04/13 03:04:37;;;;;;;2.33;0.50;;;;;;;;;;5020945;28;20113;-86
2023/04/13 03:07:04;;;;;;;0.60;0.60;;;;;;;;;;5016527;28;20030;-87
2023/04/13 03:09:30;;;;;;;0.50;0.50;;;;;;;;;;5022542;28;20095;-86
2023/04/13 03:11:56;;;;;;;1.75;0.70;;;;;;;;;;5016211;28;20029;-86
2023/04/13 03:14:21;;;;;;;1.73;0.60;;;;;;;;;;5019709;28;20025;-85
2023/04/13 03:16:48;;;;;;;0.57;0.57;;;;;;;;;;5020731;28;20054;-85
2023/04/13 03:19:15;;;;;;;0.50;0.50;;;;;;;;;;5023955;28;20030;-86
2023/04/13 03:21:41;;;;;;;0.30;0.30;;;;;;;;;;5014005;28;20061;-88
2023/04/13 03:24:07;;;;;;;1.90;0.88;;;;;;;;;;5019777;28;20141;-86
2023/04/13 03:26:34;;;;;;;1.88;1.13;;;;;;;;;;5023810;28;20105;-87
2023/04/13 03:29:00;;;;;;;0.68;0.50;;;;;;;;;;5016893;28;20150;-87
2023/04/13 03:31:26;;;;;;;4.03;0.52;;;;;;;;;;5009353;28;20029;-87
2023/04/13 03:33:52;;;;;;;0.70;0.50;;;;;;;;;;5016064;28;20026;-87
2023/04/13 03:36:18;;;;;;;1.33;0.95;;;;;;;;;;5021485;28;20034;-87
2023/04/13 03:38:44;;;;;;;0.95;0.57;;;;;;;;;;5013747;28;20026;-85
2023/04/13 03:41:10;;;;;;;4.28;0.90;;;;;;;;;;5027102;28;20029;-86
2023/04/13 03:43:36;;;;;;;0.60;0.60;;;;;;;;;;5019017;28;20888;-86
2023/04/13 03:46:06;;;;;;;2.58;0.80;;;;;;;;;;5021227;28;20033;-85
2023/04/13 03:48:32;;;;;;;1.15;0.80;;;;;;;;;;5026985;28;20033;-85
2023/04/13 03:50:58;;;;;;;1.15;0.60;;;;;;;;;;5023382;28;20033;-86
2023/04/13 03:53:24;;;;;;;0.30;0.30;;;;;;;;;;5022861;28;20079;-85
2023/04/13 03:55:50;;;;;;;0.52;0.50;;;;;;;;;;5015863;28;20041;-84
2023/04/13 03:58:17;;;;;;;1.00;0.60;;;;;;;;;;5024101;28;20029;-85
2023/04/13 04:00:43;;;;;;;0.50;0.50;;;;;;;;;;5018174;28;20112;-86
2023/04/13 04:03:09;;;;;;;0.90;0.63;;;;;;;;;;5022287;28;20396;-86
2023/04/13 04:05:41;;;;;;;0.45;0.45;;;;;;;;;;5026243;28;20049;-85
2023/04/13 04:08:07;;;;;;;0.52;0.43;;;;;;;;;;5028726;28;20026;-85
2023/04/13 04:10:36;;;;;;;0.63;0.52;;;;;;;;;;5022303;28;20394;-85
2023/04/13 04:13:02;;;;;;;0.50;0.50;;;;;;;;;;5022369;28;20021;-85
2023/04/13 04:15:28;;;;;;;0.50;0.50;;;;;;;;;;5023977;28;20492;-85
2023/04/13 04:17:53;;;;;;;1.10;0.50;;;;;;;;;;5020637;28;20103;-85
2023/04/13 04:20:19;;;;;;;1.63;0.40;;;;;;;;;;5020526;28;20029;-85
2023/04/13 04:22:46;;;;;;;0.52;0.40;;;;;;;;;;5017645;28;20443;-85
2023/04/13 04:25:19;;;;;;;0.45;0.43;;;;;;;;;;5020730;28;20649;-85
2023/04/13 04:27:48;;;;;;;0.60;0.60;;;;;;;;;;5020399;28;20034;-85
2023/04/13 04:30:17;;;;;;;0.50;0.50;;;;;;;;;;5019261;28;20064;-85
2023/04/13 04:32:42;;;;;;;1.67;0.40;;;;;;;;;;5017092;28;20034;-85
2023/04/13 04:35:11;;;;;;;0.30;0.30;;;;;;;;;;5019171;28;20095;-85
2023/04/13 04:37:37;;;;;;;0.25;0.25;;;;;;;;;;5017475;28;20035;-86
2023/04/13 04:40:08;;;;;;;0.43;0.43;;;;;;;;;;5025340;28;20079;-86
2023/04/13 04:42:34;;;;;;;1.10;0.60;;;;;;;;;;5021394;28;20025;-86
2023/04/13 04:45:00;;;;;;;0.55;0.55;;;;;;;;;;5020043;28;20026;-87
2023/04/13 04:47:29;;;;;;;0.93;0.40;;;;;;;;;;5019092;28;20492;-85
2023/04/13 04:49:56;;;;;;;1.10;0.73;;;;;;;;;;5029460;28;20531;-86
2023/04/13 04:52:23;;;;;;;1.23;0.57;;;;;;;;;;5016209;28;20075;-84
2023/04/13 04:54:50;;;;;;;1.30;0.70;;;;;;;;;;5016341;28;20041;-86
2023/04/13 04:57:17;;;;;;;1.05;0.70;;;;;;;;;;5018926;28;20060;-86
2023/04/13 04:59:43;;;;;;;0.70;0.70;;;;;;;;;;5017204;28;20059;-86
2023/04/13 05:02:09;;;;;;;0.45;0.40;;;;;;;;;;5027538;28;20018;-86
2023/04/13 05:04:35;;;;;;;0.40;0.40;;;;;;;;;;5014323;28;20681;-86
2023/04/13 05:07:01;;;;;;;0.40;0.40;;;;;;;;;;5016932;28;20043;-86
2023/04/13 05:09:27;;;;;;;0.40;0.40;;;;;;;;;;5030036;28;20529;-86
2023/04/13 05:11:53;;;;;;;0.60;0.60;;;;;;;;;;5020661;28;20030;-86
2023/04/13 05:14:19;;;;;;;1.00;0.50;;;;;;;;;;5027562;28;20136;-86
2023/04/13 05:16:45;;;;;;;0.70;0.40;;;;;;;;;;5017648;28;20055;-86
2023/04/13 05:19:12;;;;;;;0.70;0.50;;;;;;;;;;5022115;28;20033;-85
2023/04/13 05:21:38;;;;;;;0.47;0.47;;;;;;;;;;5018784;28;20115;-86
2023/04/13 05:24:04;;;;;;;0.80;0.50;;;;;;;;;;5019886;28;20547;-86
2023/04/13 05:26:30;;;;;;;0.52;0.50;;;;;;;;;;5016033;28;20600;-86
2023/04/13 05:28:56;;;;;;;0.30;0.30;;;;;;;;;;5020161;28;20026;-86
2023/04/13 05:31:26;;;;;;;1.45;0.60;;;;;;;;;;5023009;28;20030;-86
2023/04/13 05:33:52;;;;;;;0.90;0.40;;;;;;;;;;5024613;28;21325;-86
2023/04/13 05:36:18;;;;;;;0.82;0.47;;;;;;;;;;5022350;28;20476;-87
2023/04/13 05:38:44;;;;;;;1.00;0.80;;;;;;;;;;5015996;28;20037;-87
2023/04/13 05:41:10;;;;;;;0.47;0.47;;;;;;;;;;5020764;28;20245;-87
2023/04/13 05:43:36;;;;;;;0.80;0.70;;;;;;;;;;5024128;28;20033;-88
2023/04/13 05:46:08;;;;;;;0.30;0.30;;;;;;;;;;5009795;28;20030;-86
2023/04/13 05:48:34;;;;;;;0.43;0.40;;;;;;;;;;5013632;28;20041;-86
2023/04/13 05:51:00;;;;;;;0.50;0.32;;;;;;;;;;5008778;28;20415;-87
2023/04/13 05:53:26;;;;;;;0.20;0.20;;;;;;;;;;5016623;28;20388;-86
2023/04/13 05:55:54;;;;;;;0.45;0.45;;;;;;;;;;5028810;28;20027;-85
2023/04/13 05:58:20;;;;;;;0.70;0.50;;;;;;;;;;5027191;28;20035;-86
2023/04/13 06:00:46;;;;;;;0.40;0.40;;;;;;;;;;5011894;28;20137;-87
2023/04/13 06:03:14;;;;;;;0.28;0.28;;;;;;;;;;5012208;28;20040;-88
2023/04/13 06:05:41;;;;;;;0.40;0.40;;;;;;;;;;5016342;28;20037;-86
2023/04/13 06:08:09;;;;;;;0.52;0.50;;;;;;;;;;5009354;28;20041;-85
2023/04/13 06:10:35;;;;;;;0.40;0.40;;;;;;;;;;5015449;28;20027;-87
2023/04/13 06:13:02;;;;;;;0.43;0.40;;;;;;;;;;5024436;28;20067;-86
2023/04/13 06:15:28;;;;;;;0.50;0.50;;;;;;;;;;5027983;28;20029;-87
2023/04/13 06:17:54;;;;;;;0.50;0.50;;;;;;;;;;5005783;28;20046;-86
2023/04/13 06:20:20;;;;;;;1.13;0.47;;;;;;;;;;5011193;28;20025;-85
2023/04/13 06:22:46;;;;;;;2.85;0.52;;;;;;;;;;5011162;28;20579;-85
2023/04/13 06:25:13;;;;;;;0.73;0.73;;;;;;;;;;5018988;28;20041;-85
2023/04/13 06:27:42;;;;;;;0.50;0.50;;;;;;;;;;5006640;28;20112;-88
2023/04/13 06:30:09;;;;;;;0.40;0.40;;;;;;;;;;5025950;28;20036;-85
2023/04/13 06:32:35;;;;;;;0.40;0.40;;;;;;;;;;5022566;28;20036;-82
2023/04/13 06:35:04;;;;;;;0.95;0.60;;;;;;;;;;5013232;28;20057;-75
2023/04/13 06:37:29;;;;;;;2.05;0.90;;;;;;;;;;5019585;28;20025;-78
2023/04/13 06:40:01;;;;;;;1.15;0.60;;;;;;;;;;5013053;28;20500;-82
2023/04/13 06:42:27;;;;;;;;;;;;;;;;;;5019595;28;20018;-85
2023/04/13 06:44:53;;;;;;;1.33;0.68;;;;;;;;;;5019911;28;19944;-83
2023/04/13 06:47:19;;;;;;;0.77;0.77;;;;;;;;;;5024020;28;20737;-82
2023/04/13 06:49:45;;;;;;;0.82;0.55;;;;;;;;;;5026957;28;20052;-85
2023/04/13 06:52:11;;;;;;;0.63;0.57;;;;;;;;;;5010842;28;20515;-84
2023/04/13 06:54:37;;;;;;;0.70;0.57;;;;;;;;;;5025112;28;20038;-77
2023/04/13 06:57:03;;;;;;;0.47;0.47;;;;;;;;;;5017045;28;20038;-77
2023/04/13 06:59:29;;;;;;;0.63;0.55;;;;;;;;;;5015782;28;20033;-78
2023/04/13 07:01:55;;;;;;;1.20;0.60;;;;;;;;;;5017478;28;20021;-80
2023/04/13 07:04:21;;;;;;;0.85;0.63;;;;;;;;;;5019141;28;20480;-80
2023/04/13 07:06:47;;;;;;;0.80;0.80;;;;;;;;;;5022328;28;20492;-81
2023/04/13 07:09:14;;;;;;;0.30;0.30;;;;;;;;;;5014645;28;20088;-80
2023/04/13 07:11:40;;;;;;;0.50;0.50;;;;;;;;;;5022405;28;20041;-81
2023/04/13 07:14:06;;;;;;;1.50;0.95;;;;;;;;;;5021800;28;20029;-79
2023/04/13 07:16:32;;;;;;;0.40;0.40;;;;;;;;;;5023302;28;20048;-87
2023/04/13 07:18:59;;;;;;;0.40;0.40;;;;;;;;;;5026336;28;20033;-84
2023/04/13 07:21:26;;;;;;;0.55;0.55;;;;;;;;;;5027084;28;20045;-83
2023/04/13 07:23:52;;;;;;;0.57;0.50;;;;;;;;;;5028017;28;20036;-83
2023/04/13 07:26:18;;;;;;;0.75;0.40;;;;;;;;;;5017168;28;20021;-82
2023/04/13 07:28:44;;;;;;;1.65;0.77;;;;;;;;;;5029158;28;20032;-86
2023/04/13 07:31:10;;;;;;;2.28;0.70;;;;;;;;;;5022599;28;20017;-86
2023/04/13 07:33:36;;;;;;;0.50;0.50;;;;;;;;;;5024568;28;20400;-83
2023/04/13 07:36:02;;;;;;;1.23;0.40;;;;;;;;;;5018371;28;20025;-82
2023/04/13 07:38:28;;;;;;;1.05;0.60;;;;;;;;;;5021408;28;20027;-82
2023/04/13 07:40:54;;;;;;;1.98;0.70;;;;;;;;;;5024310;28;20338;-81
2023/04/13 07:43:23;;;;;;;1.27;0.60;;;;;;;;;;5026495;28;20025;-84
2023/04/13 07:45:49;;;;;;;0.40;0.40;;;;;;;;;;5025965;28;20044;-85
2023/04/13 07:48:15;;;;;;;0.95;0.43;;;;;;;;;;5025961;28;20029;-83
2023/04/13 07:50:41;;;;;;;3.63;0.90;;;;;;;;;;5026776;28;20033;-83
2023/04/13 07:53:07;;;;;;;0.57;0.57;;;;;;;;;;5024937;28;20234;-84
2023/04/13 07:55:33;;;;;;;2.58;0.38;;;;;;;;;;5020588;28;20048;-77
2023/04/13 07:57:59;;;;;;;0.22;0.22;;;;;;;;;;5025987;28;20037;-77
2023/04/13 08:00:25;;;;;;;0.50;0.40;;;;;;;;;;5025216;28;20030;-79
2023/04/13 08:02:53;;;;;;;0.55;0.55;;;;;;;;;;5021370;28;20022;-81
2023/04/13 08:05:19;;;;;;;2.00;0.65;;;;;;;;;;5027232;28;20037;-81
2023/04/13 08:07:47;;;;;;;0.30;0.30;;;;;;;;;;5024246;28;20033;-81
2023/04/13 08:10:13;;;;;;;1.33;0.30;;;;;;;;;;5023694;28;20111;-80
2023/04/13 08:12:39;;;;;;;0.35;0.30;;;;;;;;;;5019225;28;20033;-81
2023/04/13 08:15:06;;;;;;;0.80;0.70;;;;;;;;;;5021743;28;20079;-83
2023/04/13 08:17:32;;;;;;;0.32;0.32;;;;;;;;;;5023547;28;20123;-81
2023/04/13 08:19:58;;;;;;;0.17;0.17;;;;;;;;;;5016431;28;20556;-81
2023/04/13 08:22:24;;;;;;;0.55;0.52;;;;;;;;;;5015701;28;20034;-83
2023/04/13 08:24:50;;;;;;;0.60;0.40;;;;;;;;;;5017950;28;20032;-80
2023/04/13 08:27:16;;;;;;;2.55;0.52;;;;;;;;;;5020259;28;20029;-78
2023/04/13 08:29:42;;;;;;;0.85;0.50;;;;;;;;;;5011112;28;20029;-80
2023/04/13 08:32:08;;;;;;;0.65;0.50;;;;;;;;;;5018112;28;20025;-79
2023/04/13 08:34:34;;;;;;;3.03;0.30;;;;;;;;;;5017634;28;20099;-79
2023/04/13 08:37:00;;;;;;;0.68;0.65;;;;;;;;;;5018459;28;20030;-80
2023/04/13 08:39:26;;;;;;;0.73;0.63;;;;;;;;;;5019258;28;20033;-83
2023/04/13 08:41:52;;;;;;;1.27;0.40;;;;;;;;;;5020726;28;20037;-81
2023/04/13 08:44:18;;;;;;;0.55;0.50;;;;;;;;;;5022521;28;20066;-79
2023/04/13 08:46:45;;;;;;;2.42;0.28;;;;;;;;;;5023972;28;20096;-78
2023/04/13 08:49:12;;;;;;;0.25;0.25;;;;;;;;;;5021325;28;20025;-75
2023/04/13 08:51:40;;;;;;;0.47;0.38;;;;;;;;;;5022707;28;20171;-78
2023/04/13 08:54:06;;;;;;;0.30;0.30;;;;;;;;;;5025733;28;20695;-78
2023/04/13 08:56:32;;;;;;;0.75;0.63;;;;;;;;;;5019995;28;20400;-80
2023/04/13 08:59:06;;;;;;;0.30;0.30;;;;;;;;;;5021205;28;20030;-80
2023/04/13 09:01:33;;;;;;;1.00;0.47;;;;;;;;;;5025314;28;20109;-80
2023/04/13 09:04:18;;;;;;;0.28;0.28;;;;;;;;;;5024316;28;20022;-79
2023/04/13 09:06:46;;;;;;;0.30;0.30;;;;;;;;;;5017225;28;20021;-80
2023/04/13 09:09:17;;;;;;;0.80;0.30;;;;;;;;;;5015569;28;20251;-80
2023/04/13 09:11:44;;;;;;;0.80;0.50;;;;;;;;;;5012730;28;20026;-78
2023/04/13 09:14:10;;;;;;;1.10;0.40;;;;;;;;;;5012749;28;20285;-77
2023/04/13 09:16:39;;;;;;;0.40;0.40;;;;;;;;;;5013276;28;20137;-79
2023/04/13 09:19:07;;;;;;;0.55;0.50;;;;;;;;;;5014827;28;21166;-80
2023/04/13 09:21:40;;;;;;;1.05;0.32;;;;;;;;;;5014818;28;20037;-79
2023/04/13 09:24:06;;;;;;;2.00;0.40;;;;;;;;;;5018701;28;20020;-78
2023/04/13 09:26:44;;;;;;;1.65;0.70;;;;;;;;;;5017048;28;20500;-78
2023/04/13 09:29:16;;;;;;;0.30;0.30;;;;;;;;;;5012428;28;20417;-78
2023/04/13 09:31:42;;;;;;;0.40;0.40;;;;;;;;;;5009412;28;20044;-77
2023/04/13 09:34:09;;;;;;;2.25;0.40;;;;;;;;;;5012802;28;20040;-77
2023/04/13 09:36:35;;;;;;;5.30;1.17;;;;;;;;;;5008417;28;20057;-79
2023/04/13 09:39:02;;;;;;;0.95;0.60;;;;;;;;;;5016294;28;20026;-79
2023/04/13 09:41:28;;;;;;;0.30;0.17;;;;;;;;;;5009981;28;20644;-78
2023/04/13 09:43:54;;;;;;;0.60;0.40;;;;;;;;;;5014044;28;20384;-78
2023/04/13 09:46:20;;;;;;;0.80;0.55;;;;;;;;;;5022564;28;20069;-78
2023/04/13 09:48:46;;;;;;;1.13;0.50;;;;;;;;;;5020340;28;20974;-77
2023/04/13 09:51:12;;;;;;;0.80;0.30;;;;;;;;;;5016280;28;20576;-75
2023/04/13 09:53:42;;;;;;;3.47;0.40;;;;;;;;;;5022597;28;20033;-74
2023/04/13 09:56:08;;;;;;;0.63;0.30;;;;;;;;;;5017609;28;20125;-73
2023/04/13 09:58:37;;;;;;;3.28;0.90;;;;;;;;;;5023121;28;20029;-74
2023/04/13 10:01:09;;;;;;;0.63;0.40;;;;;;;;;;5022619;28;20029;-74
2023/04/13 10:03:36;;;;;;;1.77;1.23;;;;;;;;;;5013147;28;20463;-73
2023/04/13 10:06:05;;;;;;;5.07;2.03;;;;;;;;;;5007694;28;20025;-73
2023/04/13 10:08:32;;;;;;;4.03;3.05;;;;;;;;;;5004161;28;20034;-77
2023/04/13 10:11:00;;;;;;;3.67;2.25;;;;;;;;;;5009940;28;20416;-77
2023/04/13 10:13:29;;;;;;;2.55;2.20;;;;;;;;;;5006340;28;20021;-77
2023/04/13 10:16:14;;;;;;;1.92;1.60;;;;;;;;;;5013604;28;20033;-77
2023/04/13 10:18:46;;;;;;;2.00;1.55;;;;;;;;;;5005220;28;20034;-78
2023/04/13 10:21:12;;;;;;;5.72;1.45;;;;;;;;;;5014339;28;20029;-78
2023/04/13 10:23:39;;;;;;;3.95;1.35;;;;;;;;;;5005718;28;20281;-78
2023/04/13 10:26:05;;;;;;;0.93;0.90;;;;;;;;;;5017909;28;20014;-78
2023/04/13 10:28:41;;;;;;;1.50;1.30;;;;;;;;;;5006428;28;20169;-79
2023/04/13 10:31:09;;;;;;;0.90;0.90;;;;;;;;;;5011221;28;20025;-79
2023/04/13 10:33:46;;;;;;;1.25;0.90;;;;;;;;;;5008074;28;20026;-78
2023/04/13 10:36:11;;;;;;;1.08;0.90;;;;;;;;;;5016361;28;20100;-79
2023/04/13 10:38:44;;;;;;;0.75;0.75;;;;;;;;;;5011148;28;20029;-78
2023/04/13 10:41:10;;;;;;;0.60;0.60;;;;;;;;;;5006401;28;20065;-79
2023/04/13 10:43:37;;;;;;;0.47;0.47;;;;;;;;;;5000600;28;20072;-80
2023/04/13 10:46:06;;;;;;;0.60;0.60;;;;;;;;;;5014553;28;20057;-80
2023/04/13 10:48:32;;;;;;;1.58;0.98;;;;;;;;;;5005733;28;20036;-79
2023/04/13 10:50:58;;;;;;;0.57;0.57;;;;;;;;;;5009146;28;20087;-80
2023/04/13 10:53:25;;;;;;;0.65;0.65;;;;;;;;;;5011820;28;20029;-80
2023/04/13 10:55:51;;;;;;;0.50;0.50;;;;;;;;;;5005189;28;20042;-79
2023/04/13 10:58:17;;;;;;;1.60;0.50;;;;;;;;;;5013246;28;20102;-79
2023/04/13 11:00:48;;;;;;;0.65;0.60;;;;;;;;;;5017415;28;20059;-80
2023/04/13 11:03:15;;;;;;;1.17;0.60;;;;;;;;;;5009591;28;20033;-80
2023/04/13 11:05:41;;;;;;;0.52;0.50;;;;;;;;;;5013420;28;20041;-80
2023/04/13 11:08:08;;;;;;;0.43;0.43;;;;;;;;;;5019000;28;20029;-80
2023/04/13 11:10:34;;;;;;;0.40;0.40;;;;;;;;;;5013233;28;20056;-80
2023/04/13 11:13:00;;;;;;;0.70;0.50;;;;;;;;;;5009139;28;20041;-80
2023/04/13 11:15:32;;;;;;;0.40;0.40;;;;;;;;;;5014902;28;20572;-79
2023/04/13 11:17:59;;;;;;;0.77;0.73;;;;;;;;;;5007992;28;20074;-80
2023/04/13 11:20:31;;;;;;;0.68;0.57;;;;;;;;;;5006278;28;20021;-79
2023/04/13 11:22:57;;;;;;;0.30;0.30;;;;;;;;;;5018773;28;20021;-79
2023/04/13 11:25:24;;;;;;;1.77;0.85;;;;;;;;;;5015528;28;20104;-78
2023/04/13 11:27:57;;;;;;;2.88;0.57;;;;;;;;;;5010137;28;20041;-75
2023/04/13 11:30:23;;;;;;;1.35;0.85;;;;;;;;;;5015393;28;20100;-79
2023/04/13 11:32:49;;;;;;;0.30;0.30;;;;;;;;;;5010728;28;20037;-80
2023/04/13 11:35:17;;;;;;;0.47;0.40;;;;;;;;;;5014128;28;20030;-80
2023/04/13 11:37:47;;;;;;;0.30;0.30;;;;;;;;;;5015405;28;20022;-80
2023/04/13 11:40:20;;;;;;;0.50;0.50;;;;;;;;;;5017480;28;20550;-80
2023/04/13 11:42:57;;;;;;;0.35;0.35;;;;;;;;;;5018751;28;20025;-81
2023/04/13 11:45:25;;;;;;;0.82;0.40;;;;;;;;;;5014896;28;20598;-80
2023/04/13 11:47:52;;;;;;;1.75;0.95;;;;;;;;;;5011458;28;20029;-80
2023/04/13 11:50:19;;;;;;;0.30;0.30;;;;;;;;;;5010840;28;20033;-80
2023/04/13 11:52:46;;;;;;;0.30;0.30;;;;;;;;;;5019941;28;20498;-81
2023/04/13 11:55:13;;;;;;;0.38;0.30;;;;;;;;;;5012043;28;20025;-80
2023/04/13 11:57:40;;;;;;;0.30;0.30;;;;;;;;;;5016140;28;20044;-81
2023/04/13 12:00:15;;;;;;;0.45;0.45;;;;;;;;;;5007223;28;20116;-81
2023/04/13 12:02:41;;;;;;;0.60;0.50;;;;;;;;;;5006470;28;20056;-77
2023/04/13 12:05:08;;;;;;;0.43;0.40;;;;;;;;;;5012724;28;20465;-83
2023/04/13 12:07:39;;;;;;;0.40;0.40;;;;;;;;;;5013556;28;20045;-81
2023/04/13 12:10:05;;;;;;;0.35;0.32;;;;;;;;;;5011177;28;20113;-83
2023/04/13 12:12:31;;;;;;;0.95;0.30;;;;;;;;;;5011449;28;20026;-79
2023/04/13 12:14:59;;;;;;;0.38;0.38;;;;;;;;;;5007494;28;20025;-83
2023/04/13 12:17:32;;;;;;;0.22;0.22;;;;;;;;;;5010419;28;20045;-81
2023/04/13 12:19:58;;;;;;;1.10;0.50;;;;;;;;;;5008031;28;20026;-81
2023/04/13 12:22:37;;;;;;;0.30;0.30;;;;;;;;;;5020114;28;20029;-79
2023/04/13 12:25:17;;;;;;;0.38;0.32;;;;;;;;;;5024613;28;20029;-78
2023/04/13 12:27:43;;;;;;;0.40;0.40;;;;;;;;;;5026723;28;20029;-79
2023/04/13 12:30:13;;;;;;;2.10;0.30;;;;;;;;;;5026658;28;20406;-79
2023/04/13 12:32:42;;;;;;;0.35;0.35;;;;;;;;;;5020662;28;20369;-79
2023/04/13 12:35:09;;;;;;;0.40;0.40;;;;;;;;;;5022022;28;20072;-80
2023/04/13 12:37:44;;;;;;;0.30;0.30;;;;;;;;;;5019103;28;20029;-79
2023/04/13 12:40:11;;;;;;;1.75;0.60;;;;;;;;;;5013497;28;20052;-83
2023/04/13 12:42:42;;;;;;;0.40;0.40;;;;;;;;;;5025114;28;20022;-81
2023/04/13 12:45:08;;;;;;;0.47;0.47;;;;;;;;;;5026470;28;20119;-81
2023/04/13 12:47:34;;;;;;;5.32;0.60;;;;;;;;;;5022124;28;20273;-80
2023/04/13 12:50:00;;;;;;;0.75;0.35;;;;;;;;;;5005649;28;20022;-80
2023/04/13 12:52:28;;;;;;;0.30;0.30;;;;;;;;;;5005027;28;20117;-81
2023/04/13 12:54:54;;;;;;;0.20;0.20;;;;;;;;;;5014721;28;20104;-80
2023/04/13 12:57:20;;;;;;;0.35;0.35;;;;;;;;;;5010531;28;20048;-80
2023/04/13 12:59:46;;;;;;;0.98;0.38;;;;;;;;;;5012686;28;20044;-78
2023/04/13 13:02:12;;;;;;;0.90;0.40;;;;;;;;;;5013212;28;20392;-79
2023/04/13 13:04:38;;;;;;;0.22;0.22;;;;;;;;;;5005911;28;20033;-79
2023/04/13 13:07:04;;;;;;;0.40;0.40;;;;;;;;;;5007516;28;20014;-83
2023/04/13 13:09:30;;;;;;;0.50;0.50;;;;;;;;;;5014765;28;20564;-77
2023/04/13 13:11:56;;;;;;;0.40;0.40;;;;;;;;;;5013043;28;20032;-82
2023/04/13 13:14:22;;;;;;;0.60;0.60;;;;;;;;;;5007761;28;20026;-80
2023/04/13 13:16:49;;;;;;;2.55;0.88;;;;;;;;;;5011058;28;20056;-80
2023/04/13 13:19:15;;;;;;;0.82;0.82;;;;;;;;;;5021489;28;20033;-90
2023/04/13 13:21:42;;;;;;;1.45;0.85;;;;;;;;;;5014935;28;20030;-77
2023/04/13 13:24:08;;;;;;;0.52;0.50;;;;;;;;;;5011887;28;20018;-88
2023/04/13 13:26:34;;;;;;;0.93;0.50;;;;;;;;;;5006769;28;20389;-79
2023/04/13 13:29:00;;;;;;;0.77;0.70;;;;;;;;;;5015258;28;20072;-78
2023/04/13 13:31:26;;;;;;;0.30;0.30;;;;;;;;;;5013390;28;20477;-77
2023/04/13 13:33:53;;;;;;;0.60;0.60;;;;;;;;;;5014500;28;20025;-77
2023/04/13 13:36:19;;;;;;;0.40;0.40;;;;;;;;;;5011918;28;20370;-77
2023/04/13 13:38:46;;;;;;;0.52;0.40;;;;;;;;;;5009535;28;20080;-84
2023/04/13 13:41:12;;;;;;;0.38;0.38;;;;;;;;;;5018560;28;20040;-87
2023/04/13 13:43:38;;;;;;;0.93;0.70;;;;;;;;;;5008478;28;20455;-83
2023/04/13 13:46:04;;;;;;;0.32;0.32;;;;;;;;;;5014075;28;20683;-81
2023/04/13 13:48:31;;;;;;;1.55;0.40;;;;;;;;;;5007146;28;20117;-82
2023/04/13 13:50:57;;;;;;;0.40;0.40;;;;;;;;;;5004323;28;20034;-81
2023/04/13 13:53:23;;;;;;;0.40;0.30;;;;;;;;;;5014277;28;20067;-79
2023/04/13 13:55:49;;;;;;;0.55;0.30;;;;;;;;;;5015037;28;20041;-90
2023/04/13 13:58:15;;;;;;;1.60;0.50;;;;;;;;;;5012279;28;20030;-89
2023/04/13 14:00:41;;;;;;;0.90;0.30;;;;;;;;;;5014862;28;20065;-78
2023/04/13 14:03:07;;;;;;;0.50;0.40;;;;;;;;;;5016801;28;20533;-80
2023/04/13 14:05:33;;;;;;;0.20;0.20;;;;;;;;;;5008929;28;20018;-79
2023/04/13 14:07:59;;;;;;;0.38;0.38;;;;;;;;;;5011489;28;20658;-78
2023/04/13 14:10:25;;;;;;;0.63;0.38;;;;;;;;;;5018023;28;20105;-78
2023/04/13 14:12:53;;;;;;;0.52;0.43;;;;;;;;;;5009148;28;20120;-79
2023/04/13 14:15:19;;;;;;;0.47;0.30;;;;;;;;;;5011697;28;20033;-80
2023/04/13 14:17:45;;;;;;;1.35;0.55;;;;;;;;;;5000293;28;20038;-80
2023/04/13 14:20:11;;;;;;;1.13;0.50;;;;;;;;;;5015362;28;20040;-77
2023/04/13 14:22:38;;;;;;;1.10;0.30;;;;;;;;;;5012388;28;20444;-79
2023/04/13 14:25:05;;;;;;;0.73;0.35;;;;;;;;;;5003531;28;20487;-78
2023/04/13 14:27:31;;;;;;;2.63;0.45;;;;;;;;;;5014639;28;20026;-79
2023/04/13 14:29:57;;;;;;;0.88;0.30;;;;;;;;;;5010792;28;20529;-84
2023/04/13 14:32:23;;;;;;;1.30;0.28;;;;;;;;;;5004585;28;20718;-74
2023/04/13 14:34:49;;;;;;;0.30;0.30;;;;;;;;;;5007094;28;20070;-76
2023/04/13 14:37:16;;;;;;;0.30;0.30;;;;;;;;;;5007562;28;20109;-76
2023/04/13 14:39:42;;;;;;;0.30;0.30;;;;;;;;;;5011100;28;20025;-77
2023/04/13 14:42:09;;;;;;;1.30;0.45;;;;;;;;;;5003402;28;20021;-77
2023/04/13 14:44:35;;;;;;;0.52;0.40;;;;;;;;;;5008383;28;20026;-77